Time;durP1;ratioP1;P1;durP2;ratioP2;P2;SDS_P1;SDS_P2;PMS_P1;PMS_P2;Temp;Humidity;BMP_temperature;BMP_pressure;BME280_temperature;BME280_humidity;BME280_pressure;Samples;Min_cycle;Max_cycle;Signal;HPM_P1;HPM_P2
2021/10/08 00:01:01;;;;;;;5.60;5.10;;;10.90;99.90;;;;;;5052223;28;20644;-74
2021/10/08 00:03:27;;;;;;;5.25;4.75;;;10.90;99.90;;;;;;5051932;28;20025;-74
2021/10/08 00:05:52;;;;;;;5.43;4.60;;;10.80;99.90;;;;;;5047993;28;20045;-72
2021/10/08 00:08:18;;;;;;;5.72;5.22;;;10.90;99.90;;;;;;5051253;28;20025;-74
2021/10/08 00:10:44;;;;;;;6.43;4.93;;;10.80;99.90;;;;;;5052463;28;20021;-73
2021/10/08 00:13:09;;;;;;;5.88;4.97;;;10.80;99.90;;;;;;5049875;28;20392;-74
2021/10/08 00:15:35;;;;;;;5.15;4.68;;;10.80;99.90;;;;;;5055647;28;20045;-73
2021/10/08 00:18:00;;;;;;;5.80;5.20;;;10.80;99.90;;;;;;5053602;28;20025;-73
2021/10/08 00:20:26;;;;;;;6.30;5.25;;;10.70;99.90;;;;;;5055341;28;20033;-73
2021/10/08 00:22:51;;;;;;;5.50;4.97;;;10.70;99.90;;;;;;5055534;28;20451;-73
2021/10/08 00:25:17;;;;;;;7.15;5.50;;;10.70;99.90;;;;;;5055062;28;20033;-73
2021/10/08 00:27:43;;;;;;;5.85;5.35;;;10.60;99.90;;;;;;5056128;28;20021;-73
2021/10/08 00:30:09;;;;;;;5.40;4.90;;;10.50;99.90;;;;;;5051659;28;20041;-74
2021/10/08 00:32:34;;;;;;;5.88;5.30;;;10.50;99.90;;;;;;5054969;28;20021;-74
2021/10/08 00:35:00;;;;;;;8.27;5.65;;;10.40;99.90;;;;;;5053744;28;20033;-74
2021/10/08 00:37:25;;;;;;;5.88;5.03;;;10.30;99.90;;;;;;5054939;28;20032;-74
2021/10/08 00:39:51;;;;;;;6.45;5.82;;;10.30;99.90;;;;;;5055372;28;20044;-74
2021/10/08 00:42:22;;;;;;;6.93;5.50;;;10.20;99.90;;;;;;5056154;28;20025;-74
2021/10/08 00:44:48;;;;;;;7.57;5.32;;;10.20;99.90;;;;;;5056741;28;20025;-73
2021/10/08 00:47:14;;;;;;;6.95;6.28;;;10.10;99.90;;;;;;5055123;28;20033;-73
2021/10/08 00:49:40;;;;;;;6.70;5.55;;;10.10;99.90;;;;;;5054207;28;20182;-72
2021/10/08 00:52:06;;;;;;;7.93;5.72;;;10.00;99.90;;;;;;5055063;28;20111;-73
2021/10/08 00:54:31;;;;;;;7.55;5.68;;;10.00;99.90;;;;;;5055124;28;20114;-74
2021/10/08 00:57:00;;;;;;;7.13;6.43;;;9.90;99.90;;;;;;5054784;28;20155;-74
2021/10/08 00:59:29;;;;;;;8.07;5.88;;;9.90;99.90;;;;;;5054706;28;20028;-74
2021/10/08 01:01:55;;;;;;;6.55;5.97;;;9.90;99.90;;;;;;5055172;28;20025;-73
2021/10/08 01:04:23;;;;;;;7.05;6.35;;;9.80;99.90;;;;;;5054679;28;20028;-73
2021/10/08 01:06:49;;;;;;;7.95;5.50;;;9.80;99.90;;;;;;5054830;28;20028;-72
2021/10/08 01:09:14;;;;;;;6.00;5.40;;;9.80;99.90;;;;;;5075800;22;20049;-71
2021/10/08 01:11:41;;;;;;;7.75;6.18;;;9.70;99.90;;;;;;5055283;28;20139;-71
2021/10/08 01:14:06;;;;;;;9.20;6.15;;;9.70;99.90;;;;;;5052769;28;20017;-70
2021/10/08 01:16:32;;;;;;;7.45;6.65;;;9.60;99.90;;;;;;5036322;28;20017;-70
2021/10/08 01:18:58;;;;;;;7.05;6.35;;;9.60;99.90;;;;;;5054415;28;20435;-72
2021/10/08 01:21:23;;;;;;;7.68;6.93;;;9.50;99.90;;;;;;5054902;28;20060;-72
2021/10/08 01:23:49;;;;;;;7.70;6.90;;;9.50;99.90;;;;;;5036631;28;20033;-72
2021/10/08 01:26:15;;;;;;;7.63;7.03;;;9.50;99.90;;;;;;5055014;28;20021;-72
2021/10/08 01:28:40;;;;;;;8.43;7.63;;;9.50;99.90;;;;;;5035963;28;20499;-71
2021/10/08 01:31:06;;;;;;;11.00;7.20;;;9.50;99.90;;;;;;5053642;28;20075;-72
2021/10/08 01:33:33;;;;;;;11.48;7.20;;;9.50;99.90;;;;;;5054545;28;20025;-71
2021/10/08 01:35:59;;;;;;;8.27;7.35;;;9.40;99.90;;;;;;5036418;28;20063;-71
2021/10/08 01:38:24;;;;;;;9.23;7.50;;;9.40;99.90;;;;;;5035894;28;20017;-72
2021/10/08 01:40:50;;;;;;;9.90;7.30;;;9.40;99.90;;;;;;5036171;28;20400;-72
2021/10/08 01:43:15;;;;;;;8.00;7.20;;;9.30;99.90;;;;;;5036780;28;20048;-72
2021/10/08 01:45:41;;;;;;;8.00;7.30;;;9.40;99.90;;;;;;5060625;28;20028;-72
2021/10/08 01:48:07;;;;;;;7.47;6.85;;;9.30;99.90;;;;;;5053471;28;20473;-71
2021/10/08 01:50:33;;;;;;;8.70;7.80;;;9.30;99.90;;;;;;5053842;28;20111;-72
2021/10/08 01:52:59;;;;;;;9.75;7.47;;;9.30;99.90;;;;;;5035584;28;20489;-71
2021/10/08 01:55:25;;;;;;;8.77;7.97;;;9.40;99.90;;;;;;5053875;28;20017;-72
2021/10/08 01:57:50;;;;;;;7.60;6.90;;;9.20;99.90;;;;;;5053576;28;20028;-71
2021/10/08 02:00:16;;;;;;;7.70;6.72;;;9.30;99.90;;;;;;5052263;28;20028;-72
2021/10/08 02:02:41;;;;;;;8.48;7.10;;;9.20;99.90;;;;;;5035875;28;20021;-72
2021/10/08 02:05:08;;;;;;;10.30;7.32;;;9.20;99.90;;;;;;5054011;28;20033;-71
2021/10/08 02:07:33;;;;;;;8.60;7.75;;;9.10;99.90;;;;;;5042746;28;20137;-71
2021/10/08 02:09:59;;;;;;;7.82;7.03;;;9.10;99.90;;;;;;5051930;28;20045;-72
2021/10/08 02:12:25;;;;;;;8.32;7.63;;;9.10;99.90;;;;;;5041821;28;20029;-72
2021/10/08 02:14:50;;;;;;;8.07;7.05;;;9.10;99.90;;;;;;5062745;28;20539;-72
2021/10/08 02:17:16;;;;;;;7.68;6.65;;;9.00;99.90;;;;;;5053442;28;20099;-72
2021/10/08 02:19:41;;;;;;;8.40;7.47;;;9.00;99.90;;;;;;5053487;28;20021;-72
2021/10/08 02:22:07;;;;;;;8.32;7.45;;;9.00;99.90;;;;;;5052888;28;20020;-72
2021/10/08 02:24:33;;;;;;;8.98;8.18;;;9.00;99.90;;;;;;5053113;28;20044;-71
2021/10/08 02:26:58;;;;;;;9.30;7.43;;;9.00;99.90;;;;;;5053259;28;20441;-70
2021/10/08 02:29:25;;;;;;;8.00;6.72;;;9.00;99.90;;;;;;5053536;28;20162;-71
2021/10/08 02:31:51;;;;;;;8.38;7.43;;;9.00;99.90;;;;;;5053114;28;20037;-71
2021/10/08 02:34:16;;;;;;;8.23;7.43;;;8.90;99.90;;;;;;5062099;28;20032;-71
2021/10/08 02:36:42;;;;;;;10.45;8.00;;;8.90;99.90;;;;;;5063256;28;20418;-71
2021/10/08 02:39:07;;;;;;;11.75;7.97;;;8.80;99.90;;;;;;5058096;28;20020;-71
2021/10/08 02:41:33;;;;;;;10.38;7.60;;;8.80;99.90;;;;;;5056229;28;20032;-72
2021/10/08 02:43:58;;;;;;;12.48;7.85;;;8.80;99.90;;;;;;5052822;28;20313;-72
2021/10/08 02:46:24;;;;;;;8.77;7.93;;;8.80;99.90;;;;;;5053550;28;20021;-72
2021/10/08 02:48:50;;;;;;;12.80;8.45;;;8.80;99.90;;;;;;5052535;28;20037;-72
2021/10/08 02:51:15;;;;;;;7.93;7.20;;;8.70;99.90;;;;;;5052167;28;20117;-72
2021/10/08 02:53:41;;;;;;;11.00;9.60;;;8.70;99.90;;;;;;5051989;28;20036;-72
2021/10/08 02:56:06;;;;;;;15.43;9.40;;;8.80;99.90;;;;;;5053101;28;20036;-72
2021/10/08 02:58:32;;;;;;;10.07;8.60;;;8.70;99.90;;;;;;5052181;28;20520;-72
2021/10/08 03:00:58;;;;;;;9.25;8.38;;;8.70;99.90;;;;;;5052412;28;20025;-72
2021/10/08 03:03:23;;;;;;;11.43;7.45;;;8.70;99.90;;;;;;5052422;28;20029;-72
2021/10/08 03:05:49;;;;;;;9.40;8.57;;;8.60;99.90;;;;;;5051312;28;20071;-72
2021/10/08 03:08:14;;;;;;;9.60;8.60;;;8.60;99.90;;;;;;5049569;28;20033;-71
2021/10/08 03:10:40;;;;;;;10.07;8.85;;;8.60;99.90;;;;;;5052093;28;20028;-72
2021/10/08 03:13:06;;;;;;;9.98;8.98;;;8.60;99.90;;;;;;5052476;28;20485;-71
2021/10/08 03:15:31;;;;;;;10.80;9.75;;;8.60;99.90;;;;;;5051837;28;20025;-72
2021/10/08 03:17:57;;;;;;;16.13;9.00;;;8.60;99.90;;;;;;5052108;28;20146;-71
2021/10/08 03:20:23;;;;;;;10.65;9.35;;;8.60;99.90;;;;;;5054184;28;20029;-72
2021/10/08 03:22:48;;;;;;;16.45;8.35;;;8.60;99.90;;;;;;5051878;28;20017;-72
2021/10/08 03:25:14;;;;;;;10.07;9.07;;;8.60;99.90;;;;;;5052533;28;20047;-71
2021/10/08 03:27:40;;;;;;;11.27;9.10;;;8.50;99.90;;;;;;5052975;28;20024;-71
2021/10/08 03:30:09;;;;;;;10.27;9.25;;;8.50;99.90;;;;;;5052366;28;20021;-72
2021/10/08 03:32:35;;;;;;;13.27;9.43;;;8.50;99.90;;;;;;5053921;28;20025;-71
2021/10/08 03:35:01;;;;;;;9.93;8.93;;;8.50;99.90;;;;;;5052284;28;20029;-71
2021/10/08 03:37:35;;;;;;;10.00;9.02;;;8.50;99.90;;;;;;5051781;28;20032;-71
2021/10/08 03:40:01;;;;;;;10.10;9.10;;;8.50;99.90;;;;;;5051272;28;20048;-71
2021/10/08 03:42:26;;;;;;;10.43;9.52;;;8.40;99.90;;;;;;5051609;28;20480;-71
2021/10/08 03:44:58;;;;;;;10.30;9.32;;;8.40;99.90;;;;;;5054276;28;20033;-71
2021/10/08 03:47:35;;;;;;;11.90;10.80;;;8.40;99.90;;;;;;5050700;28;20108;-71
2021/10/08 03:50:00;;;;;;;12.88;9.52;;;8.40;99.90;;;;;;5046200;28;20383;-71
2021/10/08 03:52:28;;;;;;;13.73;10.40;;;8.40;99.90;;;;;;5051560;28;20216;-71
2021/10/08 03:54:53;;;;;;;14.98;10.45;;;8.40;99.90;;;;;;5051702;28;20037;-71
2021/10/08 03:57:19;;;;;;;13.38;9.10;;;8.40;99.90;;;;;;5051459;28;20028;-71
2021/10/08 03:59:44;;;;;;;11.05;9.82;;;8.40;99.90;;;;;;5051295;28;20096;-71
2021/10/08 04:02:10;;;;;;;10.43;9.32;;;8.30;99.90;;;;;;5032048;28;20033;-71
2021/10/08 04:04:35;;;;;;;12.98;10.25;;;8.30;99.90;;;;;;5051601;28;20025;-71
2021/10/08 04:07:01;;;;;;;12.45;9.02;;;8.40;99.90;;;;;;5033213;28;20539;-71
2021/10/08 04:09:26;;;;;;;12.55;10.52;;;8.30;99.90;;;;;;5051257;28;20489;-71
2021/10/08 04:11:52;;;;;;;11.50;10.10;;;8.30;99.90;;;;;;5051211;28;20110;-71
2021/10/08 04:14:18;;;;;;;12.77;10.07;;;8.30;99.90;;;;;;5050798;28;20052;-71
2021/10/08 04:16:43;;;;;;;14.50;10.95;;;8.20;99.90;;;;;;5050624;28;20423;-71
2021/10/08 04:19:09;;;;;;;11.77;10.57;;;8.20;99.90;;;;;;5050937;28;20032;-71
2021/10/08 04:21:34;;;;;;;12.32;10.73;;;8.20;99.90;;;;;;5051374;28;20436;-71
2021/10/08 04:24:00;;;;;;;12.27;11.02;;;8.20;99.90;;;;;;5050582;28;20025;-71
2021/10/08 04:26:25;;;;;;;13.77;11.05;;;8.20;99.90;;;;;;5051784;28;20404;-71
2021/10/08 04:28:51;;;;;;;13.85;11.43;;;8.20;99.90;;;;;;5032923;28;20112;-71
2021/10/08 04:31:16;;;;;;;14.05;10.82;;;8.20;99.90;;;;;;5059514;28;20033;-71
2021/10/08 04:33:42;;;;;;;12.25;10.95;;;8.30;99.90;;;;;;5055195;28;20459;-71
2021/10/08 04:36:08;;;;;;;12.95;11.18;;;8.20;99.90;;;;;;5051335;28;20028;-71
2021/10/08 04:38:33;;;;;;;13.02;10.95;;;8.30;99.90;;;;;;5051136;28;20400;-71
2021/10/08 04:40:59;;;;;;;12.45;11.15;;;8.30;99.90;;;;;;5051525;28;20558;-71
2021/10/08 04:43:25;;;;;;;12.80;10.80;;;8.20;99.90;;;;;;5057140;28;20040;-71
2021/10/08 04:45:51;;;;;;;16.27;11.63;;;8.20;99.90;;;;;;5068325;28;20025;-71
2021/10/08 04:48:17;;;;;;;12.55;11.15;;;8.20;99.90;;;;;;5067372;28;20025;-71
2021/10/08 04:50:42;;;;;;;12.93;11.77;;;8.20;99.90;;;;;;5055688;28;20377;-71
2021/10/08 04:53:26;;;;;;;14.30;11.75;;;8.20;99.90;;;;;;5051437;28;20066;-71
2021/10/08 04:55:52;;;;;;;13.63;11.77;;;8.10;99.90;;;;;;5052112;28;20068;-71
2021/10/08 04:58:18;;;;;;;12.77;11.48;;;8.10;99.90;;;;;;5034286;28;20481;-71
2021/10/08 05:00:45;;;;;;;11.88;10.77;;;8.10;99.90;;;;;;5037190;28;20028;-71
2021/10/08 05:03:16;;;;;;;13.77;11.55;;;8.10;99.90;;;;;;5054647;28;20111;-71
2021/10/08 05:05:52;;;;;;;15.43;12.23;;;8.00;99.90;;;;;;5051972;28;20122;-71
2021/10/08 05:08:20;;;;;;;12.00;10.90;;;8.10;99.90;;;;;;5036132;28;20033;-71
2021/10/08 05:10:46;;;;;;;11.70;10.50;;;8.10;99.90;;;;;;5054723;28;20384;-71
2021/10/08 05:13:12;;;;;;;16.63;11.15;;;8.10;99.90;;;;;;5036967;28;20458;-71
2021/10/08 05:15:38;;;;;;;15.27;11.57;;;8.10;99.90;;;;;;5054677;28;20025;-71
2021/10/08 05:18:04;;;;;;;12.65;10.98;;;8.10;99.90;;;;;;5053280;28;20555;-71
2021/10/08 05:20:29;;;;;;;13.77;12.48;;;8.10;99.90;;;;;;5053696;28;20031;-71
2021/10/08 05:22:55;;;;;;;14.93;12.60;;;8.10;99.90;;;;;;5054090;28;20056;-71
2021/10/08 05:25:20;;;;;;;15.45;12.05;;;8.10;99.90;;;;;;5055009;28;20025;-71
2021/10/08 05:27:46;;;;;;;13.82;11.80;;;8.00;99.90;;;;;;5054792;28;20029;-71
2021/10/08 05:30:13;;;;;;;16.42;12.82;;;8.10;99.90;;;;;;5036555;28;20036;-72
2021/10/08 05:32:39;;;;;;;18.33;11.82;;;8.10;99.90;;;;;;5053579;28;20036;-72
2021/10/08 05:35:07;;;;;;;15.10;12.38;;;8.10;99.90;;;;;;5054628;28;20539;-72
2021/10/08 05:37:32;;;;;;;14.75;12.73;;;8.10;99.90;;;;;;5054464;28;20512;-71
2021/10/08 05:39:58;;;;;;;16.17;13.75;;;8.10;99.90;;;;;;5055333;28;20024;-72
2021/10/08 05:42:24;;;;;;;14.68;11.93;;;8.10;99.90;;;;;;5054599;28;20029;-71
2021/10/08 05:44:49;;;;;;;14.50;11.60;;;8.10;99.90;;;;;;5058553;28;20131;-72
2021/10/08 05:47:15;;;;;;;16.25;12.10;;;8.00;99.90;;;;;;5056419;28;20163;-72
2021/10/08 05:49:41;;;;;;;15.15;12.40;;;8.10;99.90;;;;;;5064312;28;20068;-71
2021/10/08 05:52:07;;;;;;;12.50;11.23;;;8.10;99.90;;;;;;5064917;28;20041;-71
2021/10/08 05:54:32;;;;;;;15.43;12.05;;;8.20;99.90;;;;;;5066439;28;20109;-71
2021/10/08 05:56:58;;;;;;;14.35;10.90;;;8.20;99.90;;;;;;5059796;28;20370;-71
2021/10/08 05:59:23;;;;;;;13.05;11.75;;;8.30;99.90;;;;;;5054551;28;20100;-72
2021/10/08 06:01:49;;;;;;;14.98;11.80;;;8.30;99.90;;;;;;5053903;28;20024;-72
2021/10/08 06:04:14;;;;;;;28.13;19.27;;;8.40;99.90;;;;;;5035780;28;20025;-72
2021/10/08 06:06:41;;;;;;;16.67;13.60;;;8.40;99.90;;;;;;5054051;28;20025;-71
2021/10/08 06:09:07;;;;;;;15.82;12.77;;;8.40;99.90;;;;;;5051582;28;20425;-72
2021/10/08 06:11:33;;;;;;;14.68;12.50;;;8.30;99.90;;;;;;5053947;28;20032;-71
2021/10/08 06:13:59;;;;;;;13.10;11.75;;;8.40;99.90;;;;;;5053955;28;20546;-72
2021/10/08 06:16:25;;;;;;;14.90;11.70;;;8.40;99.90;;;;;;5053315;28;20049;-72
2021/10/08 06:18:50;;;;;;;12.60;11.32;;;8.40;99.90;;;;;;5053105;28;20033;-71
2021/10/08 06:21:16;;;;;;;14.35;12.32;;;8.50;99.90;;;;;;5055229;28;20021;-71
2021/10/08 06:23:41;;;;;;;13.27;11.95;;;8.50;99.90;;;;;;5035955;28;20033;-72
2021/10/08 06:26:07;;;;;;;14.32;12.93;;;8.60;99.90;;;;;;5053691;28;20528;-71
2021/10/08 06:28:33;;;;;;;18.15;13.45;;;8.70;99.90;;;;;;5053067;28;20021;-72
2021/10/08 06:30:58;;;;;;;13.18;11.77;;;8.70;99.90;;;;;;5052677;28;20053;-72
2021/10/08 06:33:24;;;;;;;15.75;12.52;;;8.80;99.90;;;;;;5052698;28;20037;-72
2021/10/08 06:35:51;;;;;;;15.35;12.93;;;8.80;99.90;;;;;;5053293;28;20405;-72
2021/10/08 06:38:17;;;;;;;14.02;12.13;;;8.90;99.90;;;;;;5052173;28;20100;-72
2021/10/08 06:40:42;;;;;;;15.73;13.32;;;8.90;99.90;;;;;;5050469;28;20438;-72
2021/10/08 06:43:08;;;;;;;15.73;12.32;;;8.90;99.90;;;;;;5053208;28;20044;-71
2021/10/08 06:45:34;;;;;;;16.88;13.57;;;9.00;99.90;;;;;;5053542;28;20025;-71
2021/10/08 06:48:00;;;;;;;14.63;11.98;;;9.10;99.90;;;;;;5052562;28;20496;-71
2021/10/08 06:50:26;;;;;;;15.18;12.73;;;9.20;99.90;;;;;;5052564;28;20079;-72
2021/10/08 06:52:52;;;;;;;13.88;12.02;;;9.30;99.90;;;;;;5051513;28;20316;-71
2021/10/08 06:55:17;;;;;;;13.75;12.07;;;9.30;99.90;;;;;;5051144;28;20031;-72
2021/10/08 06:57:43;;;;;;;14.38;12.90;;;9.40;99.90;;;;;;5050702;28;20092;-71
2021/10/08 07:00:10;;;;;;;14.70;12.38;;;9.40;99.90;;;;;;5050327;28;20094;-71
2021/10/08 07:03:05;;;;;;;15.63;14.02;;;9.60;99.90;;;;;;5051104;28;20033;-72
2021/10/08 07:05:31;;;;;;;13.93;12.48;;;9.60;99.90;;;;;;5030343;28;20044;-71
2021/10/08 07:07:56;;;;;;;15.15;12.43;;;9.70;99.90;;;;;;5052342;28;20086;-72
2021/10/08 07:10:22;;;;;;;15.13;12.25;;;9.70;99.90;;;;;;5063572;22;20090;-75
2021/10/08 07:12:48;;;;;;;20.98;12.75;;;9.70;99.90;;;;;;5055221;28;20029;-74
2021/10/08 07:15:20;;;;;;;13.80;12.55;;;9.80;99.90;;;;;;5055703;28;20400;-74
2021/10/08 07:17:51;;;;;;;37.85;14.18;;;9.90;99.90;;;;;;5056037;28;20047;-74
2021/10/08 07:20:24;;;;;;;19.65;12.48;;;10.00;99.90;;;;;;5053242;28;20516;-73
2021/10/08 07:22:51;;;;;;;15.57;11.73;;;10.10;99.90;;;;;;5053911;28;20112;-73
2021/10/08 07:25:17;;;;;;;15.40;10.98;;;10.10;99.90;;;;;;5052708;28;20058;-73
2021/10/08 07:27:45;;;;;;;13.05;11.82;;;10.10;99.90;;;;;;5053085;28;20025;-72
2021/10/08 07:30:12;;;;;;;14.98;13.32;;;10.20;99.90;;;;;;5051946;28;20388;-74
2021/10/08 07:32:38;;;;;;;15.10;11.75;;;10.20;99.90;;;;;;5050012;28;20037;-74
2021/10/08 07:35:05;;;;;;;14.25;12.68;;;10.20;99.90;;;;;;5031986;28;20033;-74
2021/10/08 07:37:31;;;;;;;13.02;11.73;;;10.40;99.90;;;;;;5052625;28;20024;-75
2021/10/08 07:39:57;;;;;;;12.90;11.57;;;10.60;99.90;;;;;;5054306;28;20047;-73
2021/10/08 07:42:24;;;;;;;12.70;11.35;;;10.60;99.90;;;;;;5042119;28;20024;-73
2021/10/08 07:44:50;;;;;;;14.32;11.77;;;10.70;99.90;;;;;;5052719;28;20549;-74
2021/10/08 07:47:16;;;;;;;12.98;11.77;;;10.70;99.90;;;;;;5032836;28;20037;-74
2021/10/08 07:49:42;;;;;;;13.45;11.07;;;10.70;99.90;;;;;;5052748;28;20033;-74
2021/10/08 07:52:08;;;;;;;12.25;10.93;;;10.70;99.90;;;;;;5054380;28;20381;-73
2021/10/08 07:54:34;;;;;;;13.15;11.45;;;10.70;99.90;;;;;;5057885;28;20071;-74
2021/10/08 07:56:59;;;;;;;12.27;11.02;;;10.80;99.90;;;;;;5052231;28;20033;-74
2021/10/08 07:59:25;;;;;;;15.80;12.90;;;10.90;99.90;;;;;;5052391;28;20068;-74
2021/10/08 08:01:51;;;;;;;15.95;12.43;;;11.10;99.90;;;;;;5052568;28;20043;-74
2021/10/08 08:04:16;;;;;;;22.35;12.27;;;11.10;99.90;;;;;;5051118;28;20115;-74
2021/10/08 08:06:42;;;;;;;14.35;11.15;;;11.20;99.90;;;;;;5053123;28;20091;-75
2021/10/08 08:09:07;;;;;;;12.30;11.13;;;11.30;99.90;;;;;;5052034;28;20503;-72
2021/10/08 08:11:34;;;;;;;13.75;12.13;;;11.30;99.90;;;;;;5053179;28;20120;-74
2021/10/08 08:14:00;;;;;;;12.93;11.55;;;11.30;99.90;;;;;;5053046;28;20122;-74
2021/10/08 08:16:25;;;;;;;13.07;11.88;;;11.60;99.90;;;;;;5029109;28;20045;-75
2021/10/08 08:18:51;;;;;;;13.30;11.30;;;11.60;99.90;;;;;;5051469;28;20033;-73
2021/10/08 08:21:18;;;;;;;11.80;10.40;;;11.80;99.90;;;;;;5052331;28;20064;-74
2021/10/08 08:23:43;;;;;;;11.57;10.45;;;11.80;99.90;;;;;;5053845;28;20021;-73
2021/10/08 08:26:09;;;;;;;13.93;10.43;;;11.90;99.90;;;;;;5033220;28;20072;-73
2021/10/08 08:28:34;;;;;;;16.38;10.48;;;12.00;99.90;;;;;;5052517;28;20032;-73
2021/10/08 08:31:00;;;;;;;12.05;10.57;;;12.20;99.90;;;;;;5051337;28;20036;-74
2021/10/08 08:33:26;;;;;;;12.52;10.45;;;12.20;99.90;;;;;;5054015;28;20029;-74
2021/10/08 08:35:51;;;;;;;11.98;10.52;;;12.30;99.90;;;;;;5037760;28;20045;-73
2021/10/08 08:38:17;;;;;;;12.02;10.82;;;12.40;99.90;;;;;;5057463;28;20105;-74
2021/10/08 08:40:43;;;;;;;12.68;10.38;;;12.60;99.90;;;;;;5057898;28;20473;-73
2021/10/08 08:43:08;;;;;;;14.75;11.23;;;12.40;99.90;;;;;;5055185;28;20029;-74
2021/10/08 08:45:34;;;;;;;12.43;11.05;;;12.50;99.90;;;;;;5055649;28;20303;-75
2021/10/08 08:48:05;;;;;;;10.65;9.75;;;13.10;99.90;;;;;;5028836;28;20032;-74
2021/10/08 08:50:34;;;;;;;12.90;9.93;;;13.30;99.90;;;;;;5054735;28;20384;-73
2021/10/08 08:53:00;;;;;;;10.73;9.57;;;13.50;99.90;;;;;;5056050;28;20065;-74
2021/10/08 08:55:26;;;;;;;11.05;9.43;;;13.70;99.90;;;;;;5054849;28;20041;-74
2021/10/08 08:57:51;;;;;;;11.20;9.77;;;13.80;99.90;;;;;;5055632;28;20452;-74
2021/10/08 09:00:19;;;;;;;10.35;9.25;;;13.60;99.90;;;;;;5053457;28;20051;-73
2021/10/08 09:02:56;;;;;;;10.13;9.23;;;13.60;99.90;;;;;;5052609;28;20491;-74
2021/10/08 09:05:28;;;;;;;10.45;9.30;;;13.60;99.90;;;;;;5055019;28;20033;-74
2021/10/08 09:08:02;;;;;;;11.93;8.82;;;13.70;99.90;;;;;;5054307;28;20496;-74
2021/10/08 09:10:29;;;;;;;10.25;8.25;;;13.80;99.90;;;;;;5033615;28;20120;-73
2021/10/08 09:12:56;;;;;;;11.02;7.65;;;14.10;99.90;;;;;;5037289;28;20029;-74
2021/10/08 09:15:27;;;;;;;8.90;8.10;;;14.40;99.90;;;;;;5054760;28;20025;-74
2021/10/08 09:18:09;;;;;;;;;;;14.50;99.90;;;;;;5055006;28;20036;-74
2021/10/08 09:20:35;;;;;;;11.45;7.35;;;14.30;99.90;;;;;;5029804;28;19932;-73
2021/10/08 09:23:01;;;;;;;8.23;7.32;;;14.30;99.90;;;;;;5053962;28;20535;-73
2021/10/08 09:25:36;;;;;;;8.88;7.45;;;14.30;99.90;;;;;;5055026;28;20041;-73
2021/10/08 09:28:08;;;;;;;8.65;7.85;;;14.30;99.90;;;;;;5057385;28;20557;-74
2021/10/08 09:30:43;;;;;;;9.27;8.45;;;14.30;99.90;;;;;;5048370;28;20033;-74
2021/10/08 09:33:13;;;;;;;11.85;8.85;;;14.40;99.90;;;;;;5032424;28;20431;-74
2021/10/08 09:35:40;;;;;;;10.18;9.13;;;14.30;99.90;;;;;;5055284;28;20496;-73
2021/10/08 09:38:12;;;;;;;12.02;8.20;;;14.30;99.90;;;;;;5055639;28;20060;-74
2021/10/08 09:40:50;;;;;;;9.32;8.43;;;14.30;99.90;;;;;;5036905;28;20124;-73
2021/10/08 09:43:22;;;;;;;8.88;8.07;;;14.50;99.90;;;;;;5055721;28;20067;-74
2021/10/08 09:45:51;;;;;;;9.38;8.43;;;14.70;99.90;;;;;;5050762;28;20505;-75
2021/10/08 09:48:19;;;;;;;9.00;8.20;;;14.90;99.90;;;;;;5054539;28;20494;-75
2021/10/08 09:51:03;;;;;;;10.80;8.52;;;14.90;99.90;;;;;;5055641;28;20481;-77
2021/10/08 09:53:37;;;;;;;8.48;7.57;;;14.80;99.90;;;;;;5050328;28;20034;-76
2021/10/08 09:56:32;;;;;;;9.55;8.18;;;14.80;99.90;;;;;;5053013;28;20025;-77
2021/10/08 09:58:58;;;;;;;9.25;7.95;;;14.80;99.90;;;;;;5035426;28;20036;-78
2021/10/08 10:01:29;;;;;;;10.70;8.00;;;14.70;99.90;;;;;;5036861;28;20029;-76
2021/10/08 10:03:55;;;;;;;8.15;7.35;;;14.80;99.90;;;;;;5057261;28;20044;-77
2021/10/08 10:06:22;;;;;;;14.40;8.50;;;15.00;99.90;;;;;;5056280;28;20330;-77
2021/10/08 10:08:48;;;;;;;9.32;8.30;;;14.80;99.90;;;;;;5056004;28;20496;-78
2021/10/08 10:11:20;;;;;;;10.98;7.45;;;14.50;99.90;;;;;;5063346;28;20033;-78
2021/10/08 10:13:47;;;;;;;9.43;7.50;;;14.80;99.90;;;;;;5056324;28;20047;-77
2021/10/08 10:16:18;;;;;;;9.63;8.20;;;14.90;99.90;;;;;;5051659;28;20048;-77
2021/10/08 10:18:48;;;;;;;9.20;8.05;;;14.90;99.90;;;;;;5055735;28;20013;-77
2021/10/08 10:21:18;;;;;;;12.90;9.75;;;14.90;99.90;;;;;;5069902;28;20032;-74
2021/10/08 10:23:44;;;;;;;8.55;7.63;;;15.00;99.90;;;;;;5078508;28;20013;-76
2021/10/08 10:26:10;;;;;;;8.50;7.70;;;15.10;99.90;;;;;;5074678;28;20032;-73
2021/10/08 10:28:36;;;;;;;8.43;7.53;;;15.20;99.90;;;;;;5068522;28;20029;-73
2021/10/08 10:31:04;;;;;;;8.52;7.63;;;14.90;99.90;;;;;;5072639;28;20036;-74
2021/10/08 10:33:30;;;;;;;10.98;9.18;;;15.10;99.90;;;;;;5069106;28;20029;-73
2021/10/08 10:35:59;;;;;;;8.07;7.32;;;15.00;99.90;;;;;;5069642;28;20032;-74
2021/10/08 10:38:35;;;;;;;10.10;8.20;;;14.80;99.90;;;;;;5071771;28;20024;-73
2021/10/08 10:41:09;;;;;;;9.60;8.02;;;15.00;99.90;;;;;;5057303;28;20033;-73
2021/10/08 10:43:39;;;;;;;8.10;7.13;;;15.20;99.90;;;;;;5055407;28;20036;-73
2021/10/08 10:49:25;;;;;;;9.30;8.30;;;15.50;99.90;;;;;;5054157;28;20105;-74
2021/10/08 10:51:58;;;;;;;13.52;7.57;;;15.80;99.90;;;;;;5054423;28;20496;-74
2021/10/08 10:54:41;;;;;;;9.30;7.38;;;15.80;99.90;;;;;;5054486;28;20029;-74
2021/10/08 10:57:09;;;;;;;8.80;7.90;;;15.40;99.90;;;;;;5054172;28;20037;-74
2021/10/08 10:59:36;;;;;;;9.90;8.23;;;15.40;99.90;;;;;;5056876;28;20021;-73
2021/10/08 11:02:06;;;;;;;14.70;8.77;;;15.20;99.90;;;;;;5056193;28;20059;-74
2021/10/08 11:04:35;;;;;;;9.63;7.60;;;15.30;99.90;;;;;;5054631;28;20074;-74
2021/10/08 11:07:09;;;;;;;9.13;8.23;;;15.40;99.90;;;;;;5059837;28;20029;-73
2021/10/08 11:09:36;;;;;;;9.52;7.72;;;15.50;99.90;;;;;;5059111;28;20055;-73
2021/10/08 11:12:26;;;;;;;8.90;7.90;;;15.40;99.90;;;;;;5053836;28;20059;-73
2021/10/08 11:15:17;;;;;;;16.17;8.35;;;15.30;99.90;;;;;;5053395;28;20042;-73
2021/10/08 11:17:57;;;;;;;9.30;7.40;;;15.40;99.90;;;;;;5050957;28;20066;-74
2021/10/08 11:20:32;;;;;;;8.07;7.28;;;15.30;99.90;;;;;;5052872;28;20029;-74
2021/10/08 11:23:06;;;;;;;10.45;7.47;;;15.30;99.90;;;;;;5053897;28;20036;-74
2021/10/08 11:25:34;;;;;;;11.95;8.35;;;15.50;99.90;;;;;;5031014;28;20029;-73
2021/10/08 11:28:00;;;;;;;7.75;7.05;;;15.60;99.90;;;;;;5050616;28;20032;-74
2021/10/08 11:30:28;;;;;;;9.00;7.90;;;15.50;99.90;;;;;;5051373;28;20028;-75
2021/10/08 11:32:56;;;;;;;9.85;7.60;;;15.60;99.90;;;;;;5052126;28;20338;-74
2021/10/08 11:35:30;;;;;;;8.55;7.68;;;15.80;99.90;;;;;;5052718;28;20118;-74
2021/10/08 11:37:57;;;;;;;10.45;8.30;;;15.90;99.90;;;;;;5055292;28;20075;-73
2021/10/08 11:40:33;;;;;;;10.57;7.68;;;16.00;99.90;;;;;;5054776;28;20025;-73
2021/10/08 11:43:04;;;;;;;13.77;7.45;;;16.00;99.90;;;;;;5053616;28;20446;-73
2021/10/08 11:46:14;;;;;;;9.25;8.35;;;16.10;99.90;;;;;;5055413;28;20067;-73
2021/10/08 11:48:53;;;;;;;8.48;7.18;;;16.00;99.90;;;;;;5062372;28;20181;-74
2021/10/08 11:51:18;;;;;;;8.55;7.60;;;15.70;99.90;;;;;;5064643;28;20085;-73
2021/10/08 11:53:52;;;;;;;8.75;7.05;;;15.70;99.90;;;;;;5059167;28;20043;-73
2021/10/08 11:56:29;;;;;;;9.98;7.90;;;15.50;99.90;;;;;;5060214;28;20029;-73
2021/10/08 11:58:58;;;;;;;8.75;7.25;;;15.30;99.90;;;;;;5055569;28;20029;-74
2021/10/08 12:01:27;;;;;;;10.85;7.43;;;15.20;99.90;;;;;;5055566;28;20025;-73
2021/10/08 12:03:53;;;;;;;10.30;7.32;;;15.60;99.90;;;;;;5054139;28;20036;-74
2021/10/08 12:06:23;;;;;;;10.57;7.93;;;15.60;99.90;;;;;;5053797;28;20021;-73
2021/10/08 12:08:49;;;;;;;9.05;8.13;;;15.70;99.90;;;;;;5029679;28;20097;-72
2021/10/08 12:11:16;;;;;;;8.18;7.28;;;15.80;99.90;;;;;;5054417;28;20048;-75
2021/10/08 12:13:46;;;;;;;9.90;7.30;;;15.90;99.90;;;;;;5054653;28;20024;-73
2021/10/08 12:16:19;;;;;;;9.82;8.82;;;16.00;99.90;;;;;;5036083;28;20017;-73
2021/10/08 12:18:50;;;;;;;8.32;7.53;;;15.90;99.90;;;;;;5052141;28;20541;-73
2021/10/08 12:21:18;;;;;;;8.75;7.75;;;15.90;99.90;;;;;;5037385;28;20431;-73
2021/10/08 12:23:54;;;;;;;8.95;8.07;;;15.90;99.90;;;;;;5054514;28;20387;-74
2021/10/08 12:26:20;;;;;;;10.30;7.78;;;16.10;99.90;;;;;;5052390;28;20024;-74
2021/10/08 12:28:50;;;;;;;8.40;7.60;;;16.10;99.90;;;;;;5054997;28;20102;-73
2021/10/08 12:31:16;;;;;;;9.20;8.13;;;16.00;99.90;;;;;;5054253;28;20469;-74
2021/10/08 12:33:43;;;;;;;7.63;6.90;;;15.90;99.90;;;;;;5054008;28;20125;-73
2021/10/08 12:36:25;;;;;;;10.23;8.25;;;15.80;99.90;;;;;;5036483;28;20491;-73
2021/10/08 12:39:16;;;;;;;12.25;8.25;;;15.90;99.90;;;;;;5046927;28;20119;-73
2021/10/08 12:44:23;;;;;;;9.13;8.13;;;15.70;99.90;;;;;;5037016;28;20057;-74
2021/10/08 12:50:05;;;;;;;13.93;8.18;;;15.90;99.90;;;;;;5050537;28;20090;-73
2021/10/08 12:52:48;;;;;;;9.73;8.07;;;16.00;99.90;;;;;;5038451;28;20116;-75
2021/10/08 12:55:20;;;;;;;16.45;8.43;;;16.10;99.90;;;;;;5052052;28;20076;-74